createdAt,value
2019-06-10T00:01:57.436Z,80.50
2019-06-10T00:04:24.343Z,80.70
2019-06-10T00:06:51.918Z,80.90
2019-06-10T00:09:21.062Z,81.00
2019-06-10T00:11:47.879Z,81.00
2019-06-10T00:14:15.475Z,81.00
2019-06-10T00:16:43.088Z,81.10
2019-06-10T00:19:12.719Z,81.60
2019-06-10T00:21:41.237Z,81.50
2019-06-10T00:24:07.386Z,81.70
2019-06-10T00:26:34.202Z,82.00
2019-06-10T00:29:03.135Z,82.30
2019-06-10T00:31:31.249Z,82.50
2019-06-10T00:33:57.007Z,82.80
2019-06-10T00:36:24.588Z,83.00
2019-06-10T00:38:52.194Z,83.10
2019-06-10T00:41:21.882Z,83.30
2019-06-10T00:43:47.359Z,83.50
2019-06-10T00:46:14.958Z,83.80
2019-06-10T00:48:43.297Z,84.40
2019-06-10T00:51:12.941Z,84.40
2019-06-10T00:53:38.484Z,84.60
2019-06-10T00:56:07.285Z,84.70
2019-06-10T00:58:33.955Z,84.90
2019-06-10T01:01:02.645Z,85.00
2019-06-10T01:03:31.368Z,85.30
2019-06-10T01:05:57.507Z,85.20
2019-06-10T01:08:25.090Z,84.40
2019-06-10T01:10:52.669Z,84.30
2019-06-10T01:13:20.842Z,84.20
2019-06-10T01:15:50.959Z,84.40
2019-06-10T01:18:31.946Z,84.40
2019-06-10T01:20:44.092Z,84.50
2019-06-10T01:23:13.528Z,85.40
2019-06-10T01:25:41.883Z,84.50
2019-06-10T01:28:07.628Z,84.50
2019-06-10T01:30:34.480Z,84.40
2019-06-10T01:33:02.062Z,84.50
2019-06-10T01:35:30.606Z,84.50
2019-06-10T01:37:57.273Z,84.60
2019-06-10T01:40:24.848Z,85.20
2019-06-10T01:42:52.470Z,84.50
2019-06-10T01:45:21.234Z,84.50
2019-06-10T01:47:47.639Z,85.30
2019-06-10T01:50:17.205Z,84.60
2019-06-10T01:52:42.872Z,84.50
2019-06-10T01:55:13.523Z,85.30
2019-06-10T01:57:41.127Z,85.30
2019-06-10T02:00:10.959Z,84.60
2019-06-10T02:02:35.296Z,84.60
2019-06-10T02:05:02.415Z,84.70
2019-06-10T02:07:31.996Z,85.10
2019-06-10T02:10:01.206Z,84.60
2019-06-10T02:12:26.818Z,84.50
2019-06-10T02:14:54.403Z,84.60
2019-06-10T02:17:23.866Z,84.90
2019-06-10T02:19:50.935Z,84.90
2019-06-10T02:22:18.533Z,85.00
2019-06-10T02:24:45.560Z,85.20
2019-06-10T02:27:14.468Z,85.10
2019-06-10T02:29:41.484Z,85.00
2019-06-10T02:32:12.379Z,85.00
2019-06-10T02:34:42.922Z,84.90
2019-06-10T02:37:04.944Z,85.00
2019-06-10T02:39:35.003Z,85.30
2019-06-10T02:42:00.218Z,85.60
2019-06-10T02:44:33.123Z,85.50
2019-06-10T02:46:55.397Z,85.70
2019-06-10T02:49:42.785Z,85.90
2019-06-10T02:51:53.583Z,86.20
2019-06-10T02:54:20.815Z,86.40
2019-06-10T02:56:46.396Z,87.30
2019-06-10T02:59:15.917Z,86.70
2019-06-10T03:01:44.004Z,86.80
2019-06-10T03:04:09.486Z,87.00
2019-06-10T03:06:40.162Z,87.10
2019-06-10T03:09:05.105Z,87.20
2019-06-10T03:11:36.922Z,87.30
2019-06-10T03:14:02.482Z,87.40
2019-06-10T03:16:28.121Z,87.40
2019-06-10T03:18:55.458Z,87.50
2019-06-10T03:21:24.636Z,87.60
2019-06-10T03:23:52.985Z,87.60
2019-06-10T03:26:19.236Z,87.70
2019-06-10T03:28:45.853Z,87.70
2019-06-10T03:31:15.529Z,87.90
2019-06-10T03:33:46.783Z,88.00
2019-06-10T03:36:09.033Z,88.00
2019-06-10T03:38:37.158Z,88.00
2019-06-10T03:41:04.951Z,88.20
2019-06-10T03:43:33.070Z,88.10
2019-06-10T03:46:02.700Z,88.20
2019-06-10T03:48:28.433Z,88.20
2019-06-10T03:50:55.317Z,88.40
2019-06-10T03:53:24.356Z,88.40
2019-06-10T03:55:52.656Z,88.50
2019-06-10T03:58:19.947Z,88.50
2019-06-10T04:00:46.432Z,88.60
2019-06-10T04:03:14.029Z,88.70
2019-06-10T04:05:42.423Z,88.70
2019-06-10T04:08:09.581Z,88.80
2019-06-10T04:10:37.926Z,89.00
2019-06-10T04:13:05.541Z,88.80
2019-06-10T04:15:33.123Z,88.80
2019-06-10T04:18:03.648Z,88.80
2019-06-10T04:20:29.505Z,88.90
2019-06-10T04:22:56.654Z,88.70
2019-06-10T04:25:26.668Z,88.70
2019-06-10T04:27:52.561Z,88.40
2019-06-10T04:30:20.175Z,88.50
2019-06-10T04:32:47.664Z,87.60
2019-06-10T04:35:16.032Z,87.30
2019-06-10T04:37:44.371Z,87.20
2019-06-10T04:40:13.384Z,87.20
2019-06-10T04:42:39.559Z,87.20
2019-06-10T04:45:07.141Z,87.30
2019-06-10T04:47:35.217Z,87.40
2019-06-10T04:50:03.299Z,87.40
2019-06-10T04:52:32.917Z,87.20
2019-06-10T04:54:58.363Z,87.20
2019-06-10T04:57:28.042Z,87.50
2019-06-10T04:59:54.296Z,87.20
2019-06-10T05:02:25.015Z,87.30
2019-06-10T05:04:49.524Z,87.60
2019-06-10T05:07:18.923Z,88.10
2019-06-10T05:09:45.471Z,87.70
2019-06-10T05:12:13.821Z,87.40
2019-06-10T05:14:43.248Z,87.30
2019-06-10T05:17:09.019Z,87.20
2019-06-10T05:19:36.589Z,87.20
2019-06-10T05:22:04.294Z,87.20
2019-06-10T05:24:34.312Z,87.20
2019-06-10T05:27:02.121Z,87.50
2019-06-10T05:29:28.385Z,87.50
2019-06-10T05:31:55.413Z,87.50
2019-06-10T05:34:26.454Z,87.60
2019-06-10T05:36:52.565Z,87.50
2019-06-10T05:39:18.177Z,87.40
2019-06-10T05:41:45.751Z,87.30
2019-06-10T05:44:13.626Z,87.30
2019-06-10T05:46:43.295Z,87.40
2019-06-10T05:49:08.548Z,87.40
2019-06-10T05:51:36.129Z,87.40
2019-06-10T05:54:03.711Z,87.50
2019-06-10T05:56:33.808Z,87.70
2019-06-10T05:59:01.643Z,87.90
2019-06-10T06:01:27.501Z,87.80
2019-06-10T06:03:54.516Z,88.10
2019-06-10T06:06:22.939Z,87.30
2019-06-10T06:08:49.877Z,86.60
2019-06-10T06:11:17.632Z,86.30
2019-06-10T06:13:45.243Z,86.30
2019-06-10T06:16:12.909Z,86.10
2019-06-10T06:18:42.285Z,85.90
2019-06-10T06:21:22.506Z,85.80
2019-06-10T06:23:37.077Z,85.50
2019-06-10T06:26:04.163Z,85.40
2019-06-10T06:28:33.979Z,84.90
2019-06-10T06:31:03.136Z,84.10
2019-06-10T06:33:29.463Z,84.00
2019-06-10T06:35:56.413Z,83.80
2019-06-10T06:38:24.198Z,83.50
2019-06-10T06:40:53.749Z,83.40
2019-06-10T06:43:22.094Z,83.30
2019-06-10T06:45:47.858Z,83.00
2019-06-10T06:48:15.536Z,82.00
2019-06-10T06:51:00.410Z,81.80
2019-06-10T06:53:21.221Z,81.50
2019-06-10T06:55:39.781Z,81.50
2019-06-10T06:58:06.696Z,81.20
2019-06-10T07:00:49.552Z,81.20
2019-06-10T07:03:03.133Z,81.20
2019-06-10T07:05:32.686Z,81.00
2019-06-10T07:07:58.551Z,81.00
2019-06-10T07:10:26.140Z,80.80
2019-06-10T07:12:53.752Z,80.70
2019-06-10T07:15:22.477Z,80.70
2019-06-10T07:17:49.316Z,80.60
2019-06-10T07:20:16.887Z,80.40
2019-06-10T07:22:46.576Z,80.10
2019-06-10T07:25:12.487Z,79.60
2019-06-10T07:27:42.899Z,79.50
2019-06-10T07:30:11.850Z,79.40
2019-06-10T07:32:37.351Z,78.90
2019-06-10T07:35:02.905Z,78.70
2019-06-10T07:37:32.390Z,78.00
2019-06-10T07:39:57.671Z,77.50
2019-06-10T07:42:25.250Z,77.20
2019-06-10T07:44:53.405Z,77.10
2019-06-10T07:47:22.941Z,77.30
2019-06-10T07:49:48.027Z,77.50
2019-06-10T07:52:19.644Z,77.20
2019-06-10T07:54:45.222Z,76.60
2019-06-10T07:57:12.898Z,76.50
2019-06-10T07:59:44.521Z,76.30
2019-06-10T08:02:08.789Z,75.40
2019-06-10T08:04:36.844Z,75.50
2019-06-10T08:07:04.000Z,75.40
2019-06-10T08:09:33.478Z,74.00
2019-06-10T08:12:05.446Z,74.10
2019-06-10T08:14:29.844Z,73.70
2019-06-10T08:16:57.422Z,73.70
2019-06-10T08:19:34.304Z,73.50
2019-06-10T08:21:54.875Z,73.40
2019-06-10T08:24:22.727Z,73.40
2019-06-10T08:26:50.384Z,73.10
2019-06-10T08:29:17.962Z,73.00
2019-06-10T08:31:48.443Z,72.80
2019-06-10T08:34:14.392Z,72.30
2019-06-10T08:36:46.333Z,72.30
2019-06-10T08:39:15.150Z,72.30
2019-06-10T08:41:38.466Z,72.00
2019-06-10T08:44:05.899Z,70.70
2019-06-10T08:46:33.600Z,70.70
2019-06-10T08:49:03.199Z,70.30
2019-06-10T08:51:29.155Z,70.10
2019-06-10T08:53:56.776Z,69.90
2019-06-10T08:56:24.360Z,69.70
2019-06-10T08:58:54.056Z,69.80
2019-06-10T09:01:22.346Z,69.50
2019-06-10T09:03:50.449Z,69.40
2019-06-10T09:06:16.349Z,69.10
2019-06-10T09:08:46.338Z,69.00
2019-06-10T09:11:12.923Z,69.20
2019-06-10T09:13:40.698Z,67.30
2019-06-10T09:16:15.596Z,66.60
2019-06-10T09:18:34.794Z,66.20
2019-06-10T09:21:02.464Z,66.00
2019-06-10T09:23:29.825Z,65.80
2019-06-10T09:25:57.955Z,65.10
2019-06-10T09:28:25.067Z,64.50
2019-06-10T09:30:58.597Z,64.40
2019-06-10T09:33:22.570Z,64.40
2019-06-10T09:35:50.945Z,64.30
2019-06-10T09:38:16.743Z,63.50
2019-06-10T09:40:48.423Z,64.10
2019-06-10T09:43:12.943Z,64.10
2019-06-10T09:45:41.856Z,64.10
2019-06-10T09:48:09.112Z,64.30
2019-06-10T09:50:47.048Z,63.90
2019-06-10T09:53:09.865Z,63.60
2019-06-10T09:55:37.449Z,63.20
2019-06-10T09:58:05.201Z,62.90
2019-06-10T10:00:48.802Z,62.90
2019-06-10T10:03:12.637Z,62.90
2019-06-10T10:05:51.909Z,62.90
2019-06-10T10:08:07.840Z,62.80
2019-06-10T10:10:35.442Z,62.70
2019-06-10T10:13:03.378Z,62.40
2019-06-10T10:15:34.433Z,62.10
2019-06-10T10:17:59.322Z,61.80
2019-06-10T10:20:26.941Z,61.30
2019-06-10T10:22:55.532Z,60.80
2019-06-10T10:25:23.566Z,60.90
2019-06-10T10:27:53.358Z,60.60
2019-06-10T10:30:17.557Z,59.80
2019-06-10T10:32:48.931Z,59.10
2019-06-10T10:35:13.512Z,59.10
2019-06-10T10:37:42.333Z,59.40
2019-06-10T10:40:08.708Z,60.60
2019-06-10T10:42:45.003Z,60.20
2019-06-10T10:45:04.634Z,60.20
2019-06-10T10:47:33.527Z,60.10
2019-06-10T10:50:02.553Z,59.70
2019-06-10T10:52:27.434Z,59.30
2019-06-10T10:54:55.811Z,58.60
2019-06-10T10:57:23.417Z,58.70
2019-06-10T10:59:53.946Z,58.90
2019-06-10T11:02:18.590Z,58.70
2019-06-10T11:04:46.267Z,58.40
2019-06-10T11:07:14.249Z,58.10
2019-06-10T11:09:42.425Z,57.50
2019-06-10T11:12:09.736Z,57.70
2019-06-10T11:14:37.360Z,57.60
2019-06-10T11:17:04.959Z,56.90
2019-06-10T11:19:33.064Z,56.80
2019-06-10T11:22:02.776Z,56.50
2019-06-10T11:24:36.489Z,56.60
2019-06-10T11:26:56.551Z,56.10
2019-06-10T11:29:22.974Z,55.30
2019-06-10T11:31:53.675Z,55.30
2019-06-10T11:34:19.838Z,55.50
2019-06-10T11:36:46.135Z,55.50
2019-06-10T11:39:13.511Z,55.60
2019-06-10T11:41:42.867Z,55.80
2019-06-10T11:44:08.539Z,55.90
2019-06-10T11:46:36.147Z,55.80
2019-06-10T11:49:04.499Z,55.40
2019-06-10T11:51:32.083Z,55.40
2019-06-10T11:54:00.452Z,55.20
2019-06-10T11:56:28.806Z,55.10
2019-06-10T11:58:58.704Z,55.00
2019-06-10T12:01:23.995Z,54.60
2019-06-10T12:03:54.024Z,54.20
2019-06-10T12:06:19.548Z,54.20
2019-06-10T12:08:47.132Z,54.50
2019-06-10T12:11:14.718Z,54.10
2019-06-10T12:13:43.143Z,54.10
2019-06-10T12:18:38.307Z,53.80
2019-06-10T12:21:05.929Z,53.10
2019-06-10T12:23:33.842Z,52.60
2019-06-10T12:26:04.507Z,52.60
2019-06-10T12:28:29.033Z,52.80
2019-06-10T12:31:01.095Z,53.00
2019-06-10T12:33:25.296Z,52.80
2019-06-10T12:35:54.890Z,52.60
2019-06-10T12:38:19.389Z,52.40
2019-06-10T12:40:47.025Z,52.30
2019-06-10T12:43:14.602Z,52.50
2019-06-10T12:45:43.294Z,52.50
2019-06-10T12:48:09.776Z,52.60
2019-06-10T12:50:38.121Z,52.40
2019-06-10T12:53:07.328Z,52.30
2019-06-10T12:55:42.897Z,52.50
2019-06-10T12:58:04.380Z,52.30
2019-06-10T13:00:28.804Z,52.20
2019-06-10T13:02:57.382Z,52.00
2019-06-10T13:05:23.965Z,51.80
2019-06-10T13:07:51.592Z,52.30
2019-06-10T13:10:20.562Z,51.90
2019-06-10T13:12:48.976Z,51.90
2019-06-10T13:15:15.967Z,51.30
2019-06-10T13:17:44.112Z,51.20
2019-06-10T13:20:13.625Z,51.10
2019-06-10T13:22:38.774Z,50.60
2019-06-10T13:25:06.927Z,50.20
2019-06-10T13:27:33.961Z,50.00
2019-06-10T13:30:02.721Z,50.20
2019-06-10T13:32:29.127Z,50.40
2019-06-10T13:34:57.092Z,50.60
2019-06-10T13:37:24.668Z,50.50
2019-06-10T13:39:53.009Z,50.10
2019-06-10T13:42:22.797Z,50.00
2019-06-10T13:44:48.209Z,49.50
2019-06-10T13:47:15.800Z,49.60
2019-06-10T13:49:43.802Z,49.90
2019-06-10T13:52:16.480Z,50.50
2019-06-10T13:54:39.337Z,50.40
2019-06-10T13:57:09.820Z,50.00
2019-06-10T13:59:36.489Z,49.90
2019-06-10T14:02:06.451Z,49.90
2019-06-10T14:04:33.424Z,50.10
2019-06-10T14:06:59.284Z,50.10
2019-06-10T14:09:26.970Z,49.80
2019-06-10T14:11:54.564Z,49.70
2019-06-10T14:14:22.963Z,49.90
2019-06-10T14:16:49.752Z,50.00
2019-06-10T14:19:18.096Z,50.30
2019-06-10T14:21:45.679Z,50.30
2019-06-10T14:24:16.022Z,51.00
2019-06-10T14:26:44.833Z,50.30
2019-06-10T14:29:09.225Z,50.70
2019-06-10T14:31:43.712Z,51.00
2019-06-10T14:34:05.505Z,50.30
2019-06-10T14:36:32.526Z,50.30
2019-06-10T14:38:58.916Z,50.30
2019-06-10T14:41:27.262Z,49.40
2019-06-10T14:43:54.894Z,49.50
2019-06-10T14:46:23.057Z,49.80
2019-06-10T14:48:50.064Z,49.80
2019-06-10T14:51:17.684Z,50.20
2019-06-10T14:53:45.580Z,49.60
2019-06-10T14:56:17.217Z,49.30
2019-06-10T14:58:42.422Z,49.40
2019-06-10T15:01:10.105Z,50.20
2019-06-10T15:03:37.031Z,50.20
2019-06-10T15:06:04.608Z,51.30
2019-06-10T15:08:32.439Z,51.10
2019-06-10T15:10:59.814Z,51.20
2019-06-10T15:13:27.389Z,51.50
2019-06-10T15:15:55.257Z,51.80
2019-06-10T15:18:23.902Z,52.20
2019-06-10T15:20:53.527Z,53.10
2019-06-10T15:23:20.405Z,53.60
2019-06-10T15:25:52.430Z,53.80
2019-06-10T15:28:15.932Z,54.90
2019-06-10T15:30:43.247Z,56.50
2019-06-10T15:33:11.122Z,57.70
2019-06-10T15:35:37.703Z,59.20
2019-06-10T15:38:05.306Z,61.20
2019-06-10T15:40:33.657Z,65.20
2019-06-10T15:43:01.263Z,65.20
2019-06-10T15:45:28.846Z,66.80
2019-06-10T15:47:56.460Z,68.60
2019-06-10T15:50:27.730Z,73.20
2019-06-10T15:52:55.077Z,72.40
2019-06-10T15:55:49.278Z,75.50
2019-06-10T15:57:51.029Z,75.50
2019-06-10T16:00:22.328Z,77.40
2019-06-10T16:02:46.596Z,78.00
2019-06-10T16:05:15.746Z,79.00
2019-06-10T16:07:43.184Z,80.10
2019-06-10T16:10:12.159Z,80.70
2019-06-10T16:12:39.551Z,81.80
2019-06-10T16:15:07.124Z,81.80
2019-06-10T16:17:35.481Z,82.90
2019-06-10T16:20:03.805Z,82.90
2019-06-10T16:22:30.694Z,83.30
2019-06-10T16:24:58.271Z,83.30
2019-06-10T16:27:43.489Z,85.40
2019-06-10T16:29:54.218Z,85.40
2019-06-10T16:32:23.629Z,83.90
2019-06-10T16:34:52.233Z,83.90
2019-06-10T16:37:19.152Z,84.70
2019-06-10T16:39:46.432Z,84.70
2019-06-10T16:42:14.011Z,85.00
2019-06-10T16:44:42.374Z,85.50
2019-06-10T16:47:12.462Z,86.30
2019-06-10T16:49:38.109Z,86.30
2019-06-10T16:52:05.693Z,87.00
2019-06-10T16:54:33.273Z,87.90
2019-06-10T16:57:03.730Z,87.20
2019-06-10T16:59:30.215Z,87.30
2019-06-10T17:01:57.411Z,85.80
2019-06-10T17:04:27.601Z,85.70
2019-06-10T17:06:53.261Z,85.40
2019-06-10T17:09:23.050Z,85.80
2019-06-10T17:11:48.465Z,84.60
2019-06-10T17:14:16.055Z,84.40
2019-06-10T17:16:44.431Z,84.80
2019-06-10T17:19:14.368Z,85.40
2019-06-10T17:21:42.182Z,85.30
2019-06-10T17:24:08.602Z,85.90
2019-06-10T17:26:38.241Z,87.50
2019-06-10T17:29:03.787Z,87.00
2019-06-10T17:31:34.875Z,84.30
2019-06-10T17:33:58.985Z,83.10
2019-06-10T17:36:29.520Z,83.30
2019-06-10T17:38:54.249Z,83.10
2019-06-10T17:41:25.835Z,83.20
2019-06-10T17:43:49.390Z,83.60
2019-06-10T17:46:17.013Z,83.60
2019-06-10T17:48:44.592Z,84.10
2019-06-10T17:51:12.210Z,84.60
2019-06-10T17:53:39.812Z,84.20
2019-06-10T17:56:07.388Z,84.40
2019-06-10T17:58:50.110Z,84.40
2019-06-10T18:01:02.625Z,84.50
2019-06-10T18:03:31.346Z,84.80
2019-06-10T18:05:58.264Z,85.30
2019-06-10T18:08:26.042Z,84.80
2019-06-10T18:10:53.805Z,84.90
2019-06-10T18:13:22.676Z,84.30
2019-06-10T18:15:49.737Z,84.30
2019-06-10T18:18:17.314Z,84.30
2019-06-10T18:20:44.920Z,84.10
2019-06-10T18:23:13.536Z,84.80
2019-06-10T18:25:43.095Z,84.60
2019-06-10T18:28:08.486Z,84.90
2019-06-10T18:30:37.719Z,85.00
2019-06-10T18:33:03.751Z,85.00
2019-06-10T18:35:34.139Z,84.40
2019-06-10T18:37:58.906Z,84.20
2019-06-10T18:40:27.449Z,84.10
2019-06-10T18:42:54.128Z,84.20
2019-06-10T18:45:22.373Z,84.40
2019-06-10T18:47:49.327Z,84.40
2019-06-10T18:50:16.899Z,84.50
2019-06-10T18:52:44.506Z,85.10
2019-06-10T18:55:12.307Z,84.60
2019-06-10T18:57:42.540Z,84.90
2019-06-10T19:00:13.790Z,84.60
2019-06-10T19:02:36.502Z,84.70
2019-06-10T19:05:03.215Z,84.70
2019-06-10T19:07:33.858Z,84.80
2019-06-10T19:09:59.333Z,85.00
2019-06-10T19:12:26.922Z,85.30
2019-06-10T19:14:54.513Z,85.70
2019-06-10T19:17:23.067Z,86.10
2019-06-10T19:19:53.103Z,86.50
2019-06-10T19:22:18.399Z,86.40
2019-06-10T19:24:45.997Z,86.70
2019-06-10T19:27:13.613Z,86.90
2019-06-10T19:29:50.395Z,86.90
2019-06-10T19:32:08.784Z,86.90
2019-06-10T19:34:37.475Z,86.80
2019-06-10T19:37:03.999Z,86.80
2019-06-10T19:39:35.579Z,87.10
2019-06-10T19:41:59.247Z,87.60
2019-06-10T19:44:26.831Z,87.90
2019-06-10T19:46:54.421Z,88.40
2019-06-10T19:49:22.048Z,88.80
2019-06-10T19:51:49.606Z,89.00
2019-06-10T19:54:17.231Z,89.30
2019-06-10T19:56:44.813Z,89.60
2019-06-10T19:59:13.166Z,89.90
2019-06-10T20:01:45.787Z,89.90
2019-06-10T20:04:08.376Z,89.90
2019-06-10T20:06:35.953Z,90.00
2019-06-10T20:09:03.580Z,90.10
2019-06-10T20:11:32.204Z,90.10
2019-06-10T20:13:58.736Z,90.10
2019-06-10T20:16:26.342Z,90.20
2019-06-10T20:18:53.956Z,90.30
2019-06-10T20:21:22.698Z,90.50
2019-06-10T20:23:49.911Z,90.70
2019-06-10T20:26:18.259Z,91.00
2019-06-10T20:28:48.719Z,90.70
2019-06-10T20:31:13.461Z,90.70
2019-06-10T20:33:43.067Z,91.10
2019-06-10T20:36:15.918Z,90.60
2019-06-10T20:38:37.743Z,90.50
2019-06-10T20:41:03.845Z,90.60
2019-06-10T20:43:32.816Z,90.50
2019-06-10T20:45:59.046Z,90.50
2019-06-10T20:48:26.640Z,90.60
2019-06-10T20:50:54.266Z,90.60
2019-06-10T20:53:21.857Z,90.50
2019-06-10T20:55:54.466Z,90.60
2019-06-10T20:58:17.052Z,91.00
2019-06-10T21:00:49.985Z,90.60
2019-06-10T21:03:12.245Z,90.50
2019-06-10T21:05:39.860Z,90.60
2019-06-10T21:08:08.016Z,90.50
2019-06-10T21:10:35.599Z,90.40
2019-06-10T21:13:03.219Z,90.30
2019-06-10T21:15:33.203Z,90.30
2019-06-10T21:17:58.386Z,90.20
2019-06-10T21:20:26.010Z,90.00
2019-06-10T21:22:54.423Z,89.30
2019-06-10T21:25:22.931Z,89.40
2019-06-10T21:27:52.408Z,89.60
2019-06-10T21:30:17.196Z,89.70
2019-06-10T21:32:45.744Z,90.00
2019-06-10T21:35:12.384Z,90.10
2019-06-10T21:37:42.534Z,90.20
2019-06-10T21:40:07.547Z,90.30
2019-06-10T21:42:35.150Z,90.30
2019-06-10T21:45:03.617Z,90.50
2019-06-10T21:47:32.377Z,90.40
2019-06-10T21:49:58.703Z,90.50
2019-06-10T21:52:26.288Z,90.60
2019-06-10T21:54:53.933Z,90.70
2019-06-10T21:57:22.079Z,90.80
2019-06-10T21:59:49.094Z,91.00
2019-06-10T22:02:17.470Z,90.30
2019-06-10T22:04:46.660Z,90.50
2019-06-10T22:07:13.402Z,90.20
2019-06-10T22:09:42.537Z,90.30
2019-06-10T22:12:08.602Z,90.30
2019-06-10T22:14:36.581Z,90.40
2019-06-10T22:17:04.157Z,90.50
2019-06-10T22:19:32.281Z,90.60
2019-06-10T22:22:02.588Z,90.80
2019-06-10T22:24:28.468Z,90.80
2019-06-10T22:26:56.042Z,90.80
2019-06-10T22:29:23.653Z,90.90
2019-06-10T22:31:53.622Z,91.00
2019-06-10T22:34:18.806Z,91.10
2019-06-10T22:36:47.539Z,91.20
2019-06-10T22:39:14.746Z,91.40
2019-06-10T22:41:42.688Z,91.40
2019-06-10T22:44:12.507Z,91.50
2019-06-10T22:46:38.046Z,91.40
2019-06-10T22:49:05.646Z,91.50
2019-06-10T22:51:33.999Z,91.50
2019-06-10T22:54:03.618Z,91.50
2019-06-10T22:56:29.206Z,91.50
2019-06-10T22:58:57.327Z,91.70
2019-06-10T23:01:34.343Z,91.30
2019-06-10T23:03:52.195Z,91.40
2019-06-10T23:06:19.602Z,91.00
2019-06-10T23:08:48.209Z,91.10
2019-06-10T23:11:15.571Z,91.10
2019-06-10T23:13:43.187Z,91.10
2019-06-10T23:16:12.887Z,91.40
2019-06-10T23:18:39.106Z,91.10
2019-06-10T23:21:06.728Z,91.00
2019-06-10T23:23:34.314Z,91.10
2019-06-10T23:26:02.898Z,91.10
2019-06-10T23:28:32.567Z,90.70
2019-06-10T23:31:00.150Z,90.70
2019-06-10T23:33:26.227Z,90.90
2019-06-10T23:35:54.512Z,90.90
2019-06-10T23:38:23.535Z,90.50
2019-06-10T23:40:50.627Z,90.50
2019-06-10T23:43:17.734Z,90.40
2019-06-10T23:45:45.639Z,90.60
2019-06-10T23:48:13.548Z,90.60
2019-06-10T23:50:43.205Z,90.70
2019-06-10T23:53:08.424Z,90.70
2019-06-10T23:55:36.003Z,90.80
2019-06-10T23:58:03.613Z,90.50
